Time;durP1;ratioP1;P1;durP2;ratioP2;P2;SDS_P1;SDS_P2;PMS_P1;PMS_P2;Temp;Humidity;BMP_temperature;BMP_pressure;BME280_temperature;BME280_humidity;BME280_pressure;Samples;Min_cycle;Max_cycle;Signal;HPM_P1;HPM_P2
2024/02/12 00:00:18;;;;;;;3.30;3.00;;;8.10;99.90;;;;;;5049795;28;20214;-63
2024/02/12 00:02:46;;;;;;;2.30;2.10;;;8.20;99.90;;;;;;5048013;28;20210;-64
2024/02/12 00:05:14;;;;;;;3.45;2.45;;;8.20;99.90;;;;;;5050381;28;20651;-62
2024/02/12 00:07:42;;;;;;;3.40;3.00;;;8.20;99.90;;;;;;5050513;28;20206;-63
2024/02/12 00:10:11;;;;;;;3.75;2.75;;;8.20;99.90;;;;;;5050200;28;20214;-63
2024/02/12 00:12:38;;;;;;;3.10;2.80;;;8.20;99.90;;;;;;5049832;28;20702;-63
2024/02/12 00:15:07;;;;;;;3.75;2.47;;;8.20;99.90;;;;;;5050166;28;20266;-64
2024/02/12 00:17:34;;;;;;;2.63;2.42;;;8.20;99.90;;;;;;5049515;28;20715;-62
2024/02/12 00:20:06;;;;;;;4.40;2.40;;;8.20;99.90;;;;;;5050040;28;20210;-64
2024/02/12 00:22:34;;;;;;;2.75;2.40;;;8.20;99.90;;;;;;5049773;28;20285;-64
2024/02/12 00:25:03;;;;;;;3.00;2.50;;;8.20;99.90;;;;;;5049889;28;20240;-64
2024/02/12 00:27:31;;;;;;;3.83;1.95;;;8.20;99.90;;;;;;5049821;28;20245;-64
2024/02/12 00:29:58;;;;;;;2.75;2.55;;;8.20;99.90;;;;;;5049817;28;20926;-63
2024/02/12 00:32:26;;;;;;;3.47;2.40;;;8.30;99.90;;;;;;5049311;28;20206;-63
2024/02/12 00:34:53;;;;;;;5.07;2.25;;;8.30;99.90;;;;;;5049966;28;20606;-64
2024/02/12 00:37:25;;;;;;;2.35;2.25;;;8.30;99.90;;;;;;5050087;28;20276;-63
2024/02/12 00:39:52;;;;;;;7.90;2.85;;;8.30;99.90;;;;;;5049700;28;20206;-64
2024/02/12 00:42:19;;;;;;;1.83;1.70;;;8.30;99.90;;;;;;5049096;28;20238;-63
2024/02/12 00:44:46;;;;;;;4.13;2.35;;;8.30;99.90;;;;;;5049448;28;20739;-63
2024/02/12 00:47:13;;;;;;;1.40;1.40;;;8.30;99.90;;;;;;5049321;28;20207;-64
2024/02/12 00:49:43;;;;;;;3.63;2.50;;;8.30;99.90;;;;;;5049354;28;20693;-62
2024/02/12 00:52:11;;;;;;;1.67;1.58;;;8.30;99.90;;;;;;5048859;28;20238;-63
2024/02/12 00:54:41;;;;;;;2.28;1.80;;;8.30;99.90;;;;;;5049396;28;20619;-63
2024/02/12 00:57:09;;;;;;;2.00;1.80;;;8.30;99.90;;;;;;5049256;28;20210;-63
2024/02/12 00:59:38;;;;;;;1.70;1.60;;;8.30;99.90;;;;;;5049716;28;20224;-63
2024/02/12 01:02:05;;;;;;;3.85;1.90;;;8.30;99.90;;;;;;5048912;28;20296;-63
2024/02/12 01:04:32;;;;;;;4.00;1.77;;;8.30;99.90;;;;;;5048728;28;20254;-63
2024/02/12 01:06:59;;;;;;;1.75;1.63;;;8.30;99.90;;;;;;5048389;28;20206;-63
2024/02/12 01:09:26;;;;;;;4.35;2.00;;;8.30;99.90;;;;;;5048924;28;20214;-63
2024/02/12 01:11:56;;;;;;;2.45;1.50;;;8.30;99.90;;;;;;5048808;28;20584;-63
2024/02/12 01:14:24;;;;;;;1.70;1.50;;;8.30;99.90;;;;;;5049169;28;20226;-63
2024/02/12 01:16:51;;;;;;;1.98;1.80;;;8.30;99.90;;;;;;5049051;28;20220;-62
2024/02/12 01:19:17;;;;;;;1.50;1.40;;;8.30;99.90;;;;;;5048952;28;20214;-63
2024/02/12 01:21:44;;;;;;;1.60;1.50;;;8.30;99.90;;;;;;5048429;28;20226;-64
2024/02/12 01:24:15;;;;;;;4.13;2.05;;;8.30;99.90;;;;;;5048678;28;20242;-63
2024/02/12 01:26:42;;;;;;;2.45;2.25;;;8.30;99.90;;;;;;5049187;28;20341;-64
2024/02/12 01:29:11;;;;;;;1.52;1.42;;;8.30;99.90;;;;;;5048849;28;20218;-63
2024/02/12 01:31:38;;;;;;;5.97;2.38;;;8.30;99.90;;;;;;5048648;28;20210;-63
2024/02/12 01:34:05;;;;;;;2.17;1.88;;;8.30;99.90;;;;;;5049104;28;20341;-64
2024/02/12 01:36:35;;;;;;;2.70;2.50;;;8.30;99.90;;;;;;5048801;28;20218;-63
2024/02/12 01:39:02;;;;;;;2.10;2.00;;;8.30;99.90;;;;;;5048510;28;20229;-63
2024/02/12 01:41:29;;;;;;;2.20;2.10;;;8.30;99.90;;;;;;5048114;28;20246;-63
2024/02/12 01:43:56;;;;;;;2.00;1.90;;;8.30;99.90;;;;;;5048605;28;20606;-64
2024/02/12 01:46:24;;;;;;;3.72;1.77;;;8.30;99.90;;;;;;5048681;28;20215;-62
2024/02/12 01:48:52;;;;;;;2.47;2.28;;;8.30;99.90;;;;;;5048151;28;20342;-63
2024/02/12 01:51:19;;;;;;;2.13;1.90;;;8.30;99.90;;;;;;5047749;28;20513;-63
2024/02/12 01:53:49;;;;;;;1.60;1.50;;;8.30;99.90;;;;;;5048229;28;20225;-64
2024/02/12 01:56:17;;;;;;;1.95;1.75;;;8.40;99.90;;;;;;5048578;28;20657;-63
2024/02/12 01:58:44;;;;;;;2.08;1.88;;;8.40;99.90;;;;;;5047108;28;20297;-64
2024/02/12 02:01:13;;;;;;;1.60;1.50;;;8.30;99.90;;;;;;5047749;28;20229;-63
2024/02/12 02:03:41;;;;;;;1.70;1.60;;;8.40;99.90;;;;;;5047439;28;20239;-63
2024/02/12 02:06:08;;;;;;;2.88;1.92;;;8.30;99.90;;;;;;5048138;28;20616;-63
2024/02/12 02:08:36;;;;;;;3.83;1.95;;;8.40;99.90;;;;;;5048347;28;20296;-63
2024/02/12 02:11:04;;;;;;;2.08;1.65;;;8.40;99.90;;;;;;5048383;28;20264;-63
2024/02/12 02:13:33;;;;;;;3.78;2.38;;;8.40;99.90;;;;;;5048193;28;20230;-63
2024/02/12 02:16:00;;;;;;;2.88;1.60;;;8.40;99.90;;;;;;5048260;28;20221;-62
2024/02/12 02:18:27;;;;;;;2.20;2.03;;;8.40;99.90;;;;;;5048022;28;20614;-63
2024/02/12 02:20:55;;;;;;;2.60;1.92;;;8.40;99.90;;;;;;5048340;28;20236;-63
2024/02/12 02:23:22;;;;;;;2.08;1.98;;;8.40;99.90;;;;;;5047424;28;20736;-63
2024/02/12 02:25:50;;;;;;;1.90;1.75;;;8.40;99.90;;;;;;5048251;28;20210;-63
2024/02/12 02:28:18;;;;;;;1.70;1.60;;;8.40;99.90;;;;;;5048004;28;20214;-62
2024/02/12 02:30:48;;;;;;;2.70;1.70;;;8.40;99.90;;;;;;5048106;28;20566;-63
2024/02/12 02:33:15;;;;;;;2.17;1.30;;;8.40;99.90;;;;;;5047801;28;20236;-64
2024/02/12 02:35:44;;;;;;;1.65;1.55;;;8.40;99.90;;;;;;5048320;28;20305;-63
2024/02/12 02:38:11;;;;;;;2.20;2.00;;;8.40;99.90;;;;;;5048019;28;20211;-63
2024/02/12 02:40:38;;;;;;;1.40;1.30;;;8.40;99.90;;;;;;5048124;28;20328;-63
2024/02/12 02:43:07;;;;;;;1.85;1.55;;;8.30;99.90;;;;;;5047472;28;20788;-64
2024/02/12 02:45:35;;;;;;;3.45;1.60;;;8.30;99.90;;;;;;5047774;28;20220;-64
2024/02/12 02:48:02;;;;;;;2.03;1.83;;;8.30;99.90;;;;;;5047932;28;20211;-63
2024/02/12 02:50:30;;;;;;;1.98;1.88;;;8.30;99.90;;;;;;5047878;28;20646;-63
2024/02/12 02:52:58;;;;;;;1.45;1.35;;;8.30;99.90;;;;;;5047280;28;20207;-63
2024/02/12 02:55:25;;;;;;;2.13;1.75;;;8.30;99.90;;;;;;5047639;28;20821;-63
2024/02/12 02:57:52;;;;;;;2.40;1.33;;;8.30;99.90;;;;;;5047739;28;20214;-63
2024/02/12 03:00:20;;;;;;;1.77;1.67;;;8.30;99.90;;;;;;5047550;28;20692;-63
2024/02/12 03:02:50;;;;;;;1.58;1.48;;;8.20;99.90;;;;;;5046862;28;20233;-63
2024/02/12 03:05:17;;;;;;;1.75;1.65;;;8.30;99.90;;;;;;5047905;28;20222;-63
2024/02/12 03:07:45;;;;;;;2.08;1.98;;;8.30;99.90;;;;;;5047869;28;20213;-64
2024/02/12 03:10:13;;;;;;;1.25;1.25;;;8.30;99.90;;;;;;5050058;28;20818;-64
2024/02/12 03:12:41;;;;;;;1.88;1.77;;;8.30;99.90;;;;;;5050824;28;20211;-63
2024/02/12 03:15:11;;;;;;;1.27;1.17;;;8.20;99.90;;;;;;5051770;28;20665;-63
2024/02/12 03:17:40;;;;;;;1.75;1.65;;;8.20;99.90;;;;;;5051456;28;20240;-63
2024/02/12 03:20:10;;;;;;;2.13;2.03;;;8.20;99.90;;;;;;5046825;28;20202;-63
2024/02/12 03:22:39;;;;;;;2.38;1.88;;;8.30;99.90;;;;;;5038898;28;20706;-64
2024/02/12 03:25:08;;;;;;;2.90;1.50;;;8.30;99.90;;;;;;5031116;28;20591;-63
2024/02/12 03:27:35;;;;;;;2.17;1.52;;;8.30;99.90;;;;;;5030988;28;20237;-63
2024/02/12 03:30:02;;;;;;;2.65;1.50;;;8.30;99.90;;;;;;5030936;28;20211;-63
2024/02/12 03:32:29;;;;;;;1.75;1.65;;;8.30;99.90;;;;;;5030571;28;20202;-63
2024/02/12 03:34:57;;;;;;;2.83;1.80;;;8.30;99.90;;;;;;5030640;28;20679;-63
2024/02/12 03:37:24;;;;;;;2.72;2.25;;;8.40;99.90;;;;;;5030166;28;20298;-63
2024/02/12 03:39:53;;;;;;;1.50;1.23;;;8.30;99.90;;;;;;5027993;28;20334;-64
2024/02/12 03:42:22;;;;;;;1.95;1.58;;;8.30;99.90;;;;;;5030237;28;20242;-63
2024/02/12 03:44:49;;;;;;;2.00;1.70;;;8.30;99.90;;;;;;5030870;28;20227;-63
2024/02/12 03:47:18;;;;;;;2.08;1.88;;;8.30;99.90;;;;;;5031109;28;20215;-63
2024/02/12 04:00:45;;;;;;;1.60;1.50;;;8.30;99.90;;;;;;5030725;28;20266;-64
2024/02/12 04:03:13;;;;;;;2.35;2.15;;;8.30;99.90;;;;;;5030095;28;20242;-63
2024/02/12 04:05:40;;;;;;;2.17;2.05;;;8.30;99.90;;;;;;5030612;28;20580;-63
2024/02/12 04:08:09;;;;;;;2.60;2.45;;;8.30;99.90;;;;;;5030427;28;20698;-62
2024/02/12 04:10:37;;;;;;;1.83;1.73;;;8.30;99.90;;;;;;5030188;28;20207;-63
2024/02/12 04:13:05;;;;;;;3.00;2.75;;;8.20;99.90;;;;;;5029653;28;20213;-64
2024/02/12 04:15:32;;;;;;;3.75;3.00;;;8.30;99.90;;;;;;5030250;28;20207;-63
2024/02/12 04:17:59;;;;;;;2.08;1.80;;;8.20;99.90;;;;;;5030334;28;20242;-64
2024/02/12 04:20:26;;;;;;;6.45;2.38;;;8.20;99.90;;;;;;5029738;28;20245;-63
2024/02/12 04:22:53;;;;;;;2.50;2.30;;;8.20;99.90;;;;;;5029366;28;20230;-63
2024/02/12 04:25:23;;;;;;;3.00;2.67;;;8.20;99.90;;;;;;5052632;22;20337;-64
2024/02/12 04:27:51;;;;;;;2.22;2.00;;;8.20;99.90;;;;;;5030095;28;20225;-63
2024/02/12 04:30:18;;;;;;;2.42;1.92;;;8.20;99.90;;;;;;5029321;28;20211;-63
2024/02/12 04:32:47;;;;;;;2.80;2.13;;;8.20;99.90;;;;;;5029106;28;20697;-63
2024/02/12 04:35:14;;;;;;;2.35;2.25;;;8.20;99.90;;;;;;5029757;28;20241;-63
2024/02/12 04:37:45;;;;;;;2.30;2.10;;;8.30;99.90;;;;;;5029850;28;20217;-63
2024/02/12 04:40:12;;;;;;;2.03;1.75;;;8.30;99.90;;;;;;5027218;28;20215;-63
2024/02/12 04:42:41;;;;;;;1.95;1.67;;;8.30;99.90;;;;;;5029318;28;20231;-63
2024/02/12 04:45:10;;;;;;;3.10;1.63;;;8.30;99.90;;;;;;5029792;28;20510;-62
2024/02/12 04:47:37;;;;;;;2.28;2.08;;;8.30;99.90;;;;;;5029791;28;20593;-63
2024/02/12 04:50:07;;;;;;;1.10;1.00;;;8.30;99.90;;;;;;5029521;28;20800;-63
2024/02/12 04:52:34;;;;;;;1.60;1.50;;;8.30;99.90;;;;;;5029597;28;20202;-63
2024/02/12 04:55:01;;;;;;;1.58;1.48;;;8.30;99.90;;;;;;5029700;28;20237;-63
2024/02/12 04:57:28;;;;;;;1.67;1.58;;;8.30;99.90;;;;;;5029640;28;21001;-63
2024/02/12 04:59:57;;;;;;;5.65;2.58;;;8.30;99.90;;;;;;5029321;28;20215;-62
2024/02/12 05:02:25;;;;;;;1.35;1.35;;;8.20;99.90;;;;;;5028811;28;20233;-62
2024/02/12 05:04:53;;;;;;;1.30;1.30;;;8.30;99.90;;;;;;5029475;28;20230;-62
2024/02/12 05:07:19;;;;;;;1.77;1.42;;;8.30;99.90;;;;;;5029581;28;20261;-62
2024/02/12 05:09:46;;;;;;;1.73;1.63;;;8.30;99.90;;;;;;5029186;28;20596;-62
2024/02/12 05:12:15;;;;;;;1.55;1.40;;;8.20;99.90;;;;;;5028819;28;20202;-62
2024/02/12 05:14:42;;;;;;;1.50;1.38;;;8.30;99.90;;;;;;5029104;28;20234;-61
2024/02/12 05:17:11;;;;;;;1.63;1.52;;;8.30;99.90;;;;;;5029383;28;20214;-62
2024/02/12 05:22:34;;;;;;;1.75;1.65;;;8.20;99.90;;;;;;5028630;28;20258;-62
2024/02/12 05:25:02;;;;;;;1.60;1.50;;;8.20;99.90;;;;;;5028893;28;20242;-62
2024/02/12 05:27:31;;;;;;;1.60;1.35;;;8.20;99.90;;;;;;5028839;28;20637;-62
2024/02/12 05:29:58;;;;;;;2.60;2.08;;;8.20;99.90;;;;;;5029076;28;20306;-62
2024/02/12 05:32:27;;;;;;;1.75;1.65;;;8.20;99.90;;;;;;5028294;28;20301;-63
2024/02/12 05:34:55;;;;;;;5.78;1.60;;;8.20;99.90;;;;;;5028781;28;20321;-62
2024/02/12 05:37:22;;;;;;;1.50;1.40;;;8.20;99.90;;;;;;5028878;28;20268;-62
2024/02/12 05:39:49;;;;;;;1.88;1.75;;;8.20;99.90;;;;;;5028547;28;20591;-62
2024/02/12 05:42:16;;;;;;;1.52;1.42;;;8.30;99.90;;;;;;5028175;28;20321;-62
2024/02/12 05:44:42;;;;;;;1.90;1.80;;;8.20;99.90;;;;;;5028748;28;20321;-61
2024/02/12 05:47:11;;;;;;;5.75;1.70;;;8.20;99.90;;;;;;5028682;28;20268;-62
2024/02/12 05:49:40;;;;;;;2.88;2.15;;;8.20;99.90;;;;;;5028654;28;20605;-62
2024/02/12 05:52:08;;;;;;;2.47;2.10;;;8.20;99.90;;;;;;5028228;28;20677;-62
2024/02/12 05:54:35;;;;;;;1.95;1.85;;;8.20;99.90;;;;;;5028544;28;20238;-62
2024/02/12 05:57:04;;;;;;;2.20;2.00;;;8.20;99.90;;;;;;5028638;28;20214;-62
2024/02/12 05:59:33;;;;;;;2.17;1.88;;;8.20;99.90;;;;;;5028828;28;20210;-62
2024/02/12 06:02:02;;;;;;;1.88;1.77;;;8.20;99.90;;;;;;5028092;28;20225;-61
2024/02/12 06:04:29;;;;;;;3.35;2.45;;;8.20;99.90;;;;;;5028159;28;20242;-61
2024/02/12 06:06:58;;;;;;;2.08;1.95;;;8.20;99.90;;;;;;5027825;28;20211;-62
2024/02/12 06:09:24;;;;;;;1.80;1.70;;;8.20;99.90;;;;;;5028308;28;20210;-62
2024/02/12 06:11:51;;;;;;;1.75;1.58;;;8.20;99.90;;;;;;5028151;28;20702;-62
2024/02/12 06:14:18;;;;;;;2.40;2.20;;;8.20;99.90;;;;;;5028436;28;20239;-63
2024/02/12 06:16:45;;;;;;;4.18;1.83;;;8.20;99.90;;;;;;5028381;28;20298;-62
2024/02/12 06:19:12;;;;;;;2.13;2.03;;;8.20;99.90;;;;;;5028116;28;20757;-63
2024/02/12 06:21:38;;;;;;;2.00;1.90;;;8.10;99.90;;;;;;5027654;28;20207;-62
2024/02/12 06:24:07;;;;;;;1.75;1.65;;;8.10;99.90;;;;;;5027959;28;20245;-62
2024/02/12 06:26:34;;;;;;;6.40;2.33;;;8.10;99.90;;;;;;5028483;28;20298;-62
2024/02/12 06:29:01;;;;;;;2.72;2.53;;;8.10;99.90;;;;;;5028063;28;20215;-61
2024/02/12 06:31:28;;;;;;;2.22;2.13;;;8.10;99.90;;;;;;5027894;28;20206;-61
2024/02/12 06:33:55;;;;;;;3.88;2.00;;;8.10;99.90;;;;;;5028240;28;20238;-63
2024/02/12 06:36:22;;;;;;;2.42;2.22;;;8.10;99.90;;;;;;5028849;28;20207;-61
2024/02/12 06:38:49;;;;;;;2.20;2.10;;;8.10;99.90;;;;;;5028227;28;20245;-61
2024/02/12 06:41:20;;;;;;;4.75;2.88;;;8.10;99.90;;;;;;5027392;28;20217;-62
2024/02/12 06:43:47;;;;;;;2.05;1.95;;;8.10;99.90;;;;;;5026957;28;20823;-62
2024/02/12 06:46:14;;;;;;;2.42;2.33;;;8.10;99.90;;;;;;5031953;28;20740;-61
2024/02/12 06:48:41;;;;;;;2.50;2.30;;;8.20;99.90;;;;;;5031729;28;20221;-62
2024/02/12 06:51:09;;;;;;;3.65;2.15;;;8.20;99.90;;;;;;5031623;28;20211;-62
2024/02/12 06:53:36;;;;;;;2.97;2.42;;;8.20;99.90;;;;;;5031733;28;20229;-61
2024/02/12 06:56:04;;;;;;;3.03;2.83;;;8.20;99.90;;;;;;5031932;28;20873;-62
2024/02/12 06:58:32;;;;;;;2.83;1.92;;;8.20;99.90;;;;;;5031699;28;20219;-62
2024/02/12 07:00:59;;;;;;;3.85;2.50;;;8.20;99.90;;;;;;5031768;28;20211;-61
2024/02/12 07:03:28;;;;;;;2.40;2.10;;;8.20;99.90;;;;;;5031138;28;20237;-62
2024/02/12 07:05:55;;;;;;;3.25;2.90;;;8.20;99.90;;;;;;5032079;28;20211;-62
2024/02/12 07:08:22;;;;;;;4.00;3.15;;;8.20;99.90;;;;;;5031727;28;20215;-62
2024/02/12 07:10:49;;;;;;;2.70;2.50;;;8.20;99.90;;;;;;5031590;28;20214;-62
2024/02/12 07:13:16;;;;;;;3.63;3.33;;;8.20;99.90;;;;;;5031077;28;20705;-62
2024/02/12 07:15:44;;;;;;;3.33;2.58;;;8.20;99.90;;;;;;5031310;28;20297;-62
2024/02/12 07:18:11;;;;;;;3.50;3.20;;;8.20;99.90;;;;;;5031652;28;20207;-62
2024/02/12 07:20:39;;;;;;;3.88;3.58;;;8.20;99.90;;;;;;5031212;28;20221;-62
2024/02/12 07:23:07;;;;;;;3.15;2.65;;;8.20;99.90;;;;;;5030861;28;20227;-62
2024/02/12 07:25:34;;;;;;;3.47;3.10;;;8.20;99.90;;;;;;5031178;28;20250;-63
2024/02/12 07:28:01;;;;;;;3.10;2.90;;;8.20;99.90;;;;;;5031472;28;20215;-62
2024/02/12 07:30:30;;;;;;;3.17;2.97;;;8.20;99.90;;;;;;5031028;28;20302;-63
2024/02/12 07:32:59;;;;;;;6.35;3.28;;;8.20;99.90;;;;;;5031295;28;20665;-62
2024/02/12 07:35:29;;;;;;;4.28;3.38;;;8.20;99.90;;;;;;5031534;28;20257;-63
2024/02/12 07:37:56;;;;;;;4.32;2.92;;;8.20;99.90;;;;;;5031833;28;20783;-63
2024/02/12 07:40:23;;;;;;;3.90;3.60;;;8.20;99.90;;;;;;5031874;28;20635;-62
2024/02/12 07:42:50;;;;;;;4.53;3.35;;;8.20;99.90;;;;;;5031073;28;20710;-63
2024/02/12 07:45:17;;;;;;;3.72;3.42;;;8.20;99.90;;;;;;5031748;28;20322;-62
2024/02/12 07:47:44;;;;;;;3.85;3.55;;;8.20;99.90;;;;;;5031826;28;20298;-62
2024/02/12 07:50:13;;;;;;;3.45;3.25;;;8.20;99.90;;;;;;5031366;28;20211;-62
2024/02/12 07:52:40;;;;;;;4.80;3.40;;;8.20;99.90;;;;;;5030722;28;20211;-62
2024/02/12 07:55:11;;;;;;;3.88;3.60;;;8.30;99.90;;;;;;5030648;28;20231;-62
2024/02/12 07:57:38;;;;;;;3.22;2.92;;;8.20;99.90;;;;;;5030481;28;20637;-62
2024/02/12 08:00:07;;;;;;;3.55;3.25;;;8.20;99.90;;;;;;5030606;28;20218;-62
2024/02/12 08:02:34;;;;;;;4.07;3.78;;;8.20;99.90;;;;;;5030146;28;20211;-62
2024/02/12 08:05:04;;;;;;;5.60;3.63;;;8.20;99.90;;;;;;5030823;28;20891;-62
2024/02/12 08:07:32;;;;;;;3.65;3.35;;;8.20;99.90;;;;;;5030648;28;20297;-62
2024/02/12 08:10:00;;;;;;;4.93;4.53;;;8.20;99.90;;;;;;5030540;28;20214;-62
2024/02/12 08:12:26;;;;;;;6.60;5.90;;;8.30;99.90;;;;;;5030559;28;20218;-62
2024/02/12 08:14:53;;;;;;;5.20;3.97;;;8.30;99.90;;;;;;5030881;28;20765;-62
2024/02/12 08:17:20;;;;;;;4.43;4.03;;;8.30;99.90;;;;;;5030687;28;20217;-62
2024/02/12 08:19:47;;;;;;;12.07;9.80;;;8.30;99.90;;;;;;5030184;28;20707;-62
2024/02/12 08:22:14;;;;;;;13.25;6.65;;;8.30;99.90;;;;;;5029822;28;20215;-63
2024/02/12 08:24:42;;;;;;;8.35;6.97;;;8.30;99.90;;;;;;5029866;28;20241;-62
2024/02/12 08:27:09;;;;;;;5.90;5.30;;;8.30;99.90;;;;;;5030130;28;20215;-62
2024/02/12 08:29:36;;;;;;;5.93;5.43;;;8.30;99.90;;;;;;5029345;28;20203;-63
2024/02/12 08:32:04;;;;;;;5.65;4.72;;;8.30;99.90;;;;;;5029500;28;20221;-62
2024/02/12 08:34:30;;;;;;;6.03;4.90;;;8.30;99.90;;;;;;5029860;28;20227;-62
2024/02/12 08:36:57;;;;;;;4.90;4.50;;;8.40;99.90;;;;;;5029874;28;20218;-62
2024/02/12 08:39:24;;;;;;;5.55;5.13;;;8.30;99.90;;;;;;5029965;28;20659;-62
2024/02/12 08:41:52;;;;;;;6.75;5.80;;;8.40;99.90;;;;;;5029360;28;20211;-62
2024/02/12 08:44:19;;;;;;;7.70;6.50;;;8.40;99.90;;;;;;5029772;28;20234;-62
2024/02/12 08:46:46;;;;;;;5.43;4.93;;;8.40;99.90;;;;;;5030103;28;20215;-62
2024/02/12 08:49:14;;;;;;;4.20;3.80;;;8.40;99.90;;;;;;5029640;28;20225;-62
2024/02/12 08:51:42;;;;;;;6.78;5.22;;;8.40;99.90;;;;;;5029109;28;20288;-62
2024/02/12 08:54:08;;;;;;;4.88;4.32;;;8.40;99.90;;;;;;5029557;28;20231;-63
2024/02/12 08:56:39;;;;;;;4.68;4.10;;;8.40;99.90;;;;;;5029846;28;20221;-62
2024/02/12 08:59:07;;;;;;;4.65;4.07;;;8.40;99.90;;;;;;5029616;28;20217;-62
2024/02/12 09:01:36;;;;;;;6.63;4.70;;;8.50;99.90;;;;;;5028979;28;20218;-62
2024/02/12 09:04:02;;;;;;;10.10;4.72;;;8.60;99.90;;;;;;5029309;28;20258;-61
2024/02/12 09:06:29;;;;;;;5.50;4.53;;;8.70;99.90;;;;;;5029656;28;20675;-63
2024/02/12 09:08:56;;;;;;;5.57;4.43;;;8.70;99.90;;;;;;5026981;28;20454;-62
2024/02/12 09:11:23;;;;;;;4.15;3.72;;;8.70;99.90;;;;;;5026758;28;20211;-62
2024/02/12 09:13:50;;;;;;;5.25;4.45;;;8.70;99.90;;;;;;5019696;28;20238;-60
2024/02/12 09:16:19;;;;;;;4.38;3.38;;;8.70;99.90;;;;;;5022288;28;20207;-61
2024/02/12 09:18:46;;;;;;;6.30;4.40;;;8.60;99.90;;;;;;5028341;28;20242;-62
2024/02/12 09:21:14;;;;;;;4.80;4.03;;;8.60;99.90;;;;;;5029967;28;20293;-61
2024/02/12 09:23:41;;;;;;;5.63;5.13;;;8.50;99.90;;;;;;5023272;28;20732;-62
2024/02/12 09:26:08;;;;;;;5.57;4.45;;;8.50;99.90;;;;;;5026757;28;20210;-61
2024/02/12 09:28:35;;;;;;;6.25;4.85;;;8.40;99.90;;;;;;5028208;28;20233;-62
2024/02/12 09:31:02;;;;;;;4.80;4.28;;;8.40;99.90;;;;;;5026119;28;20211;-61
2024/02/12 09:33:30;;;;;;;5.40;4.90;;;8.40;99.90;;;;;;5022608;28;20230;-62
2024/02/12 09:35:58;;;;;;;5.80;5.30;;;8.40;99.90;;;;;;5018651;28;20211;-62
2024/02/12 09:38:25;;;;;;;6.38;5.75;;;8.30;99.90;;;;;;5026228;28;20211;-62
2024/02/12 09:40:53;;;;;;;7.30;5.22;;;8.30;99.90;;;;;;5017905;28;20241;-62
2024/02/12 09:43:22;;;;;;;6.75;5.50;;;8.30;99.90;;;;;;5022603;28;20628;-62
2024/02/12 09:45:51;;;;;;;10.80;8.68;;;8.30;99.90;;;;;;5022968;28;20203;-61
2024/02/12 09:48:20;;;;;;;9.27;6.80;;;8.40;99.90;;;;;;5016444;28;20216;-63
2024/02/12 09:50:50;;;;;;;7.35;5.85;;;8.40;99.90;;;;;;5018193;28;20613;-62
2024/02/12 09:53:19;;;;;;;9.18;6.13;;;8.50;99.90;;;;;;5026532;28;20659;-62
2024/02/12 09:55:47;;;;;;;9.90;7.70;;;8.60;99.90;;;;;;5022278;28;20285;-62
2024/02/12 09:58:15;;;;;;;9.10;6.88;;;8.70;99.90;;;;;;5025890;28;20678;-62
2024/02/12 10:00:42;;;;;;;6.88;5.88;;;8.70;99.90;;;;;;5026215;28;20210;-61
2024/02/12 10:03:11;;;;;;;10.93;7.22;;;8.80;99.90;;;;;;5019424;28;20208;-62
2024/02/12 10:05:41;;;;;;;8.27;6.97;;;8.80;99.90;;;;;;5021886;28;20213;-62
2024/02/12 10:08:20;;;;;;;7.38;6.68;;;8.80;99.90;;;;;;5027537;28;20446;-62
2024/02/12 10:10:47;;;;;;;9.15;7.18;;;8.80;99.90;;;;;;5025487;28;20209;-62
2024/02/12 10:13:15;;;;;;;7.30;6.23;;;8.80;99.90;;;;;;5027045;28;20211;-62
2024/02/12 10:15:43;;;;;;;9.70;7.70;;;8.80;99.90;;;;;;5026054;28;20978;-62
2024/02/12 10:18:11;;;;;;;9.23;8.32;;;8.80;99.90;;;;;;5021254;28;20450;-62
2024/02/12 10:20:39;;;;;;;10.52;7.28;;;8.90;99.90;;;;;;5029109;28;20207;-61
2024/02/12 10:23:06;;;;;;;9.55;8.60;;;8.80;99.90;;;;;;5027974;28;20207;-62
2024/02/12 10:25:39;;;;;;;10.57;8.00;;;8.90;99.90;;;;;;5051668;22;20323;-64
2024/02/12 10:28:06;;;;;;;13.33;7.00;;;8.90;99.90;;;;;;5031117;28;20737;-63
2024/02/12 10:30:33;;;;;;;7.83;6.93;;;9.00;99.90;;;;;;5030605;28;20458;-63
2024/02/12 10:33:05;;;;;;;9.17;7.57;;;9.00;99.90;;;;;;5023229;28;20553;-63
2024/02/12 10:35:32;;;;;;;9.90;7.43;;;9.10;99.90;;;;;;5009659;28;21092;-63
2024/02/12 10:37:59;;;;;;;13.70;8.27;;;9.20;99.90;;;;;;5008037;28;20208;-63
2024/02/12 10:40:30;;;;;;;9.00;8.10;;;9.30;99.90;;;;;;5007849;28;20578;-63
2024/02/12 10:43:03;;;;;;;8.23;7.23;;;9.30;99.90;;;;;;5007473;28;20211;-64
2024/02/12 10:45:31;;;;;;;11.00;7.73;;;9.30;99.90;;;;;;5007491;28;20582;-62
2024/02/12 10:47:58;;;;;;;7.50;6.57;;;9.30;99.90;;;;;;5007966;28;20481;-64
2024/02/12 10:50:27;;;;;;;8.60;7.70;;;9.30;99.90;;;;;;5006942;28;20210;-63
2024/02/12 10:52:55;;;;;;;8.57;7.77;;;9.20;99.90;;;;;;5006749;28;20829;-62
2024/02/12 10:55:23;;;;;;;9.25;6.93;;;9.20;99.90;;;;;;5007887;28;20476;-63
2024/02/12 10:57:51;;;;;;;7.95;6.60;;;9.20;99.90;;;;;;5008134;28;20294;-63
2024/02/12 11:00:25;;;;;;;7.78;6.90;;;9.10;99.90;;;;;;5006784;28;20208;-63
2024/02/12 11:02:54;;;;;;;8.10;7.38;;;9.10;99.90;;;;;;5006839;28;20235;-63
2024/02/12 11:05:21;;;;;;;8.48;7.65;;;9.10;99.90;;;;;;5006959;28;20790;-63
2024/02/12 11:07:49;;;;;;;7.32;6.63;;;9.10;99.90;;;;;;5006857;28;20210;-63
2024/02/12 11:10:18;;;;;;;7.85;7.07;;;9.10;99.90;;;;;;5006825;28;20219;-64
2024/02/12 11:12:47;;;;;;;8.20;7.10;;;9.10;99.90;;;;;;5006169;28;20741;-63
2024/02/12 11:15:26;;;;;;;9.10;7.05;;;9.10;99.90;;;;;;5005985;28;20583;-63
2024/02/12 11:17:53;;;;;;;8.63;7.32;;;9.00;99.90;;;;;;5005332;28;20593;-63
2024/02/12 11:20:23;;;;;;;8.43;7.55;;;9.00;99.90;;;;;;5005436;28;20211;-63
2024/02/12 11:22:52;;;;;;;10.05;7.75;;;8.90;99.90;;;;;;5004960;28;20207;-63
2024/02/12 11:25:19;;;;;;;11.93;7.43;;;9.00;99.90;;;;;;5003616;28;20250;-62
2024/02/12 11:27:52;;;;;;;9.07;7.47;;;9.00;99.90;;;;;;5005521;28;20463;-62
2024/02/12 11:30:21;;;;;;;15.63;8.00;;;9.00;99.90;;;;;;5004770;28;20298;-62
2024/02/12 11:32:49;;;;;;;8.73;7.93;;;9.00;99.90;;;;;;5004877;28;20299;-62
2024/02/12 11:35:18;;;;;;;7.77;6.97;;;9.10;99.90;;;;;;5004785;28;20228;-63
2024/02/12 11:37:47;;;;;;;8.00;7.05;;;9.10;99.90;;;;;;5007060;28;20459;-63
2024/02/12 11:40:18;;;;;;;8.48;6.43;;;9.10;99.90;;;;;;5003434;28;20231;-62
2024/02/12 11:42:49;;;;;;;7.68;6.20;;;9.20;99.90;;;;;;5002075;28;20830;-63
2024/02/12 11:45:16;;;;;;;6.85;6.25;;;9.30;99.90;;;;;;5004081;28;20232;-63
2024/02/12 11:47:46;;;;;;;8.60;6.88;;;9.40;99.90;;;;;;5004151;28;20208;-62
2024/02/12 11:50:20;;;;;;;8.73;6.40;;;9.40;99.90;;;;;;5005518;28;20215;-64
2024/02/12 11:52:47;;;;;;;8.75;6.75;;;9.40;99.90;;;;;;5004889;28;20212;-63
2024/02/12 11:55:14;;;;;;;9.47;7.00;;;9.40;99.90;;;;;;5006002;28;20223;-62
2024/02/12 11:57:41;;;;;;;6.90;6.40;;;9.50;99.90;;;;;;5005429;28;20828;-62
2024/02/12 12:00:16;;;;;;;7.93;7.13;;;9.50;99.90;;;;;;5004513;28;20465;-63
2024/02/12 12:02:46;;;;;;;7.10;6.40;;;9.50;99.90;;;;;;5003391;28;20547;-63
2024/02/12 12:05:15;;;;;;;10.90;6.53;;;9.50;99.90;;;;;;5005486;28;20486;-63
2024/02/12 12:07:43;;;;;;;7.07;6.37;;;9.50;99.90;;;;;;5002803;28;20545;-62
2024/02/12 12:10:11;;;;;;;8.17;5.77;;;9.60;99.90;;;;;;5004051;28;20461;-64
2024/02/12 12:12:39;;;;;;;9.87;6.07;;;9.60;99.90;;;;;;5006242;28;20451;-62
2024/02/12 12:15:09;;;;;;;8.20;6.35;;;9.60;99.90;;;;;;5005339;28;20482;-62
2024/02/12 12:17:37;;;;;;;8.85;7.22;;;9.60;99.90;;;;;;5007498;28;20218;-61
2024/02/12 12:20:10;;;;;;;8.27;7.45;;;9.60;99.90;;;;;;5005528;28;20211;-63
2024/02/12 12:22:38;;;;;;;7.10;6.40;;;9.70;99.90;;;;;;5002405;28;20211;-63
2024/02/12 12:25:06;;;;;;;8.50;6.97;;;9.70;99.90;;;;;;5004050;28;20497;-63
2024/02/12 12:27:34;;;;;;;8.33;5.90;;;9.70;99.90;;;;;;5001258;28;20456;-63
2024/02/12 12:30:12;;;;;;;7.23;6.40;;;9.70;99.90;;;;;;5006942;28;20466;-62
2024/02/12 12:32:40;;;;;;;5.63;5.23;;;9.70;99.90;;;;;;5000322;28;20493;-62
2024/02/12 12:35:09;;;;;;;9.32;7.55;;;9.80;99.90;;;;;;5001914;28;20562;-63
2024/02/12 12:37:36;;;;;;;6.00;5.50;;;9.80;99.90;;;;;;5004164;28;20741;-62
2024/02/12 12:40:08;;;;;;;8.07;7.20;;;9.80;99.90;;;;;;5004376;28;20465;-63
2024/02/12 12:42:36;;;;;;;5.10;4.70;;;9.80;99.90;;;;;;5002934;28;20207;-63
2024/02/12 12:45:03;;;;;;;10.60;6.50;;;9.80;99.90;;;;;;5001837;28;20602;-63
2024/02/12 12:47:31;;;;;;;10.20;6.90;;;9.80;99.90;;;;;;5000595;28;20458;-63
2024/02/12 12:49:58;;;;;;;5.37;4.97;;;9.70;99.90;;;;;;5001145;28;20922;-62
2024/02/12 12:52:26;;;;;;;9.30;6.10;;;9.70;99.90;;;;;;5002538;28;20463;-63
2024/02/12 12:54:54;;;;;;;5.53;5.13;;;9.70;99.90;;;;;;4997031;28;20501;-63
2024/02/12 12:57:22;;;;;;;6.68;5.63;;;9.70;99.90;;;;;;5004281;28;20467;-62
2024/02/12 12:59:49;;;;;;;6.20;5.60;;;9.70;99.90;;;;;;5000970;28;20294;-62
2024/02/12 13:02:15;;;;;;;5.37;4.67;;;9.60;99.90;;;;;;4998374;28;20455;-63
2024/02/12 13:04:44;;;;;;;5.03;4.73;;;9.60;99.90;;;;;;5000766;28;20497;-62
2024/02/12 13:07:12;;;;;;;5.70;4.77;;;9.70;99.90;;;;;;4996289;28;20522;-62
2024/02/12 13:09:40;;;;;;;5.30;4.40;;;9.70;99.90;;;;;;5002756;28;20464;-63
2024/02/12 13:12:12;;;;;;;5.80;5.20;;;9.70;99.90;;;;;;4997615;28;20463;-62